sensor_id;sensor_type;location;lat;lon;timestamp;P1;durP1;ratioP1;P2;durP2;ratioP2
4754;SDS011;2391;47.212;7.542;2022-12-29T00:02:10;5.87;;;4.60;;
4754;SDS011;2391;47.212;7.542;2022-12-29T00:04:38;5.07;;;4.63;;
4754;SDS011;2391;47.212;7.542;2022-12-29T00:07:04;5.67;;;4.70;;
4754;SDS011;2391;47.212;7.542;2022-12-29T00:09:31;4.70;;;4.30;;
4754;SDS011;2391;47.212;7.542;2022-12-29T00:11:58;9.00;;;4.87;;
4754;SDS011;2391;47.212;7.542;2022-12-29T00:14:24;5.27;;;4.60;;
4754;SDS011;2391;47.212;7.542;2022-12-29T00:17:09;6.07;;;4.60;;
4754;SDS011;2391;47.212;7.542;2022-12-29T00:19:35;9.27;;;4.20;;
4754;SDS011;2391;47.212;7.542;2022-12-29T00:22:19;4.87;;;4.30;;
4754;SDS011;2391;47.212;7.542;2022-12-29T00:25:04;4.30;;;3.77;;
4754;SDS011;2391;47.212;7.542;2022-12-29T00:27:49;7.00;;;4.50;;
4754;SDS011;2391;47.212;7.542;2022-12-29T00:30:33;4.30;;;3.90;;
4754;SDS011;2391;47.212;7.542;2022-12-29T00:33:21;5.43;;;3.67;;
4754;SDS011;2391;47.212;7.542;2022-12-29T00:36:09;7.10;;;4.17;;
4754;SDS011;2391;47.212;7.542;2022-12-29T00:38:40;4.43;;;3.53;;
4754;SDS011;2391;47.212;7.542;2022-12-29T00:41:28;6.10;;;3.67;;
4754;SDS011;2391;47.212;7.542;2022-12-29T00:44:12;4.50;;;3.83;;
4754;SDS011;2391;47.212;7.542;2022-12-29T00:46:40;3.70;;;3.40;;
4754;SDS011;2391;47.212;7.542;2022-12-29T00:49:07;4.20;;;3.80;;
4754;SDS011;2391;47.212;7.542;2022-12-29T00:51:54;3.83;;;3.53;;
4754;SDS011;2391;47.212;7.542;2022-12-29T00:54:21;3.43;;;3.13;;
4754;SDS011;2391;47.212;7.542;2022-12-29T00:56:48;3.50;;;3.17;;
4754;SDS011;2391;47.212;7.542;2022-12-29T00:59:15;4.97;;;3.40;;
4754;SDS011;2391;47.212;7.542;2022-12-29T01:01:41;3.77;;;3.43;;
4754;SDS011;2391;47.212;7.542;2022-12-29T01:04:07;3.60;;;3.30;;
4754;SDS011;2391;47.212;7.542;2022-12-29T01:06:34;4.37;;;3.33;;
4754;SDS011;2391;47.212;7.542;2022-12-29T01:09:02;3.90;;;3.57;;
4754;SDS011;2391;47.212;7.542;2022-12-29T01:11:47;3.43;;;3.13;;
4754;SDS011;2391;47.212;7.542;2022-12-29T01:14:13;4.70;;;3.47;;
4754;SDS011;2391;47.212;7.542;2022-12-29T01:16:39;3.27;;;2.97;;
4754;SDS011;2391;47.212;7.542;2022-12-29T01:19:05;3.13;;;2.83;;
4754;SDS011;2391;47.212;7.542;2022-12-29T01:21:31;3.10;;;2.90;;
4754;SDS011;2391;47.212;7.542;2022-12-29T01:23:58;4.00;;;3.10;;
4754;SDS011;2391;47.212;7.542;2022-12-29T01:26:24;2.93;;;2.73;;
4754;SDS011;2391;47.212;7.542;2022-12-29T01:28:50;3.50;;;3.20;;
4754;SDS011;2391;47.212;7.542;2022-12-29T01:31:16;5.60;;;2.80;;
4754;SDS011;2391;47.212;7.542;2022-12-29T01:33:42;2.90;;;2.50;;
4754;SDS011;2391;47.212;7.542;2022-12-29T01:36:09;2.93;;;2.63;;
4754;SDS011;2391;47.212;7.542;2022-12-29T01:38:38;2.80;;;2.60;;
4754;SDS011;2391;47.212;7.542;2022-12-29T01:41:04;2.90;;;2.70;;
4754;SDS011;2391;47.212;7.542;2022-12-29T01:43:42;2.77;;;2.57;;
4754;SDS011;2391;47.212;7.542;2022-12-29T01:51:32;2.50;;;2.30;;
4754;SDS011;2391;47.212;7.542;2022-12-29T01:56:52;2.97;;;2.67;;
4754;SDS011;2391;47.212;7.542;2022-12-29T01:59:21;2.53;;;2.43;;
4754;SDS011;2391;47.212;7.542;2022-12-29T02:01:49;2.80;;;2.60;;
4754;SDS011;2391;47.212;7.542;2022-12-29T02:04:16;2.07;;;1.87;;
4754;SDS011;2391;47.212;7.542;2022-12-29T02:06:46;2.50;;;2.30;;
4754;SDS011;2391;47.212;7.542;2022-12-29T02:09:20;2.30;;;2.10;;
4754;SDS011;2391;47.212;7.542;2022-12-29T02:11:47;2.30;;;2.10;;
4754;SDS011;2391;47.212;7.542;2022-12-29T02:14:13;1.70;;;1.60;;
4754;SDS011;2391;47.212;7.542;2022-12-29T02:33:19;4.60;;;2.20;;
4754;SDS011;2391;47.212;7.542;2022-12-29T02:38:56;2.97;;;1.80;;
4754;SDS011;2391;47.212;7.542;2022-12-29T02:41:23;1.77;;;1.67;;
4754;SDS011;2391;47.212;7.542;2022-12-29T02:46:34;1.70;;;1.50;;
4754;SDS011;2391;47.212;7.542;2022-12-29T02:49:15;3.10;;;1.80;;
4754;SDS011;2391;47.212;7.542;2022-12-29T02:51:56;2.30;;;2.13;;
4754;SDS011;2391;47.212;7.542;2022-12-29T02:54:27;2.03;;;1.90;;
4754;SDS011;2391;47.212;7.542;2022-12-29T02:57:12;2.30;;;1.77;;
4754;SDS011;2391;47.212;7.542;2022-12-29T02:59:43;1.93;;;1.77;;
4754;SDS011;2391;47.212;7.542;2022-12-29T03:02:24;1.77;;;1.67;;
4754;SDS011;2391;47.212;7.542;2022-12-29T03:07:54;2.00;;;1.80;;
4754;SDS011;2391;47.212;7.542;2022-12-29T03:16:42;2.27;;;1.87;;
4754;SDS011;2391;47.212;7.542;2022-12-29T03:19:30;1.90;;;1.80;;
4754;SDS011;2391;47.212;7.542;2022-12-29T03:22:07;2.03;;;1.93;;
4754;SDS011;2391;47.212;7.542;2022-12-29T03:25:01;2.50;;;1.70;;
4754;SDS011;2391;47.212;7.542;2022-12-29T03:27:29;2.10;;;1.90;;
4754;SDS011;2391;47.212;7.542;2022-12-29T03:30:10;2.07;;;1.97;;
4754;SDS011;2391;47.212;7.542;2022-12-29T03:32:39;2.10;;;1.90;;
4754;SDS011;2391;47.212;7.542;2022-12-29T03:35:10;2.17;;;1.93;;
4754;SDS011;2391;47.212;7.542;2022-12-29T03:37:41;2.97;;;1.97;;
4754;SDS011;2391;47.212;7.542;2022-12-29T03:40:09;1.70;;;1.60;;
4754;SDS011;2391;47.212;7.542;2022-12-29T03:42:35;2.43;;;2.33;;
4754;SDS011;2391;47.212;7.542;2022-12-29T03:45:04;1.50;;;1.40;;
4754;SDS011;2391;47.212;7.542;2022-12-29T03:47:32;1.87;;;1.77;;
4754;SDS011;2391;47.212;7.542;2022-12-29T03:49:58;2.07;;;1.70;;
4754;SDS011;2391;47.212;7.542;2022-12-29T03:52:24;3.77;;;1.77;;
4754;SDS011;2391;47.212;7.542;2022-12-29T03:54:50;2.00;;;1.80;;
4754;SDS011;2391;47.212;7.542;2022-12-29T03:57:16;2.87;;;1.77;;
4754;SDS011;2391;47.212;7.542;2022-12-29T03:59:42;2.37;;;2.20;;
4754;SDS011;2391;47.212;7.542;2022-12-29T04:02:08;3.33;;;1.87;;
4754;SDS011;2391;47.212;7.542;2022-12-29T04:04:34;2.97;;;1.90;;
4754;SDS011;2391;47.212;7.542;2022-12-29T04:06:59;2.00;;;1.90;;
4754;SDS011;2391;47.212;7.542;2022-12-29T04:09:25;2.43;;;2.23;;
4754;SDS011;2391;47.212;7.542;2022-12-29T04:11:51;3.00;;;1.60;;
4754;SDS011;2391;47.212;7.542;2022-12-29T04:14:17;5.27;;;2.33;;
4754;SDS011;2391;47.212;7.542;2022-12-29T04:16:46;3.40;;;2.73;;
4754;SDS011;2391;47.212;7.542;2022-12-29T04:19:12;2.23;;;2.03;;
4754;SDS011;2391;47.212;7.542;2022-12-29T04:21:38;2.80;;;1.80;;
4754;SDS011;2391;47.212;7.542;2022-12-29T04:24:04;2.50;;;2.27;;
4754;SDS011;2391;47.212;7.542;2022-12-29T04:26:34;2.10;;;2.00;;
4754;SDS011;2391;47.212;7.542;2022-12-29T04:29:00;2.00;;;1.90;;
4754;SDS011;2391;47.212;7.542;2022-12-29T04:31:26;2.47;;;2.27;;
4754;SDS011;2391;47.212;7.542;2022-12-29T04:33:51;3.33;;;2.23;;
4754;SDS011;2391;47.212;7.542;2022-12-29T04:36:17;2.97;;;2.07;;
4754;SDS011;2391;47.212;7.542;2022-12-29T04:38:43;4.23;;;2.07;;
4754;SDS011;2391;47.212;7.542;2022-12-29T04:41:09;13.23;;;2.23;;
4754;SDS011;2391;47.212;7.542;2022-12-29T04:43:35;2.60;;;2.40;;
4754;SDS011;2391;47.212;7.542;2022-12-29T04:46:01;2.90;;;2.70;;
4754;SDS011;2391;47.212;7.542;2022-12-29T04:48:27;4.90;;;2.40;;
4754;SDS011;2391;47.212;7.542;2022-12-29T04:50:53;2.60;;;2.40;;
4754;SDS011;2391;47.212;7.542;2022-12-29T04:53:19;4.47;;;2.17;;
4754;SDS011;2391;47.212;7.542;2022-12-29T04:55:48;2.97;;;2.70;;
4754;SDS011;2391;47.212;7.542;2022-12-29T04:58:17;3.50;;;2.60;;
4754;SDS011;2391;47.212;7.542;2022-12-29T05:00:44;4.60;;;2.50;;
4754;SDS011;2391;47.212;7.542;2022-12-29T05:03:10;2.80;;;2.10;;
4754;SDS011;2391;47.212;7.542;2022-12-29T05:05:36;2.63;;;2.43;;
4754;SDS011;2391;47.212;7.542;2022-12-29T05:08:02;2.07;;;1.90;;
4754;SDS011;2391;47.212;7.542;2022-12-29T05:10:29;2.50;;;2.30;;
4754;SDS011;2391;47.212;7.542;2022-12-29T05:12:55;1.93;;;1.83;;
4754;SDS011;2391;47.212;7.542;2022-12-29T05:15:21;3.27;;;1.80;;
4754;SDS011;2391;47.212;7.542;2022-12-29T05:17:47;2.53;;;1.90;;
4754;SDS011;2391;47.212;7.542;2022-12-29T05:20:13;1.70;;;1.60;;
4754;SDS011;2391;47.212;7.542;2022-12-29T05:22:39;1.60;;;1.50;;
4754;SDS011;2391;47.212;7.542;2022-12-29T05:25:05;1.77;;;1.50;;
4754;SDS011;2391;47.212;7.542;2022-12-29T05:27:31;4.60;;;2.00;;
4754;SDS011;2391;47.212;7.542;2022-12-29T05:29:57;9.73;;;2.53;;
4754;SDS011;2391;47.212;7.542;2022-12-29T05:32:23;2.83;;;1.80;;
4754;SDS011;2391;47.212;7.542;2022-12-29T05:34:49;2.10;;;1.83;;
4754;SDS011;2391;47.212;7.542;2022-12-29T05:37:15;3.80;;;2.37;;
4754;SDS011;2391;47.212;7.542;2022-12-29T05:39:41;2.03;;;1.60;;
4754;SDS011;2391;47.212;7.542;2022-12-29T05:42:07;2.43;;;1.97;;
4754;SDS011;2391;47.212;7.542;2022-12-29T05:44:33;4.33;;;1.70;;
4754;SDS011;2391;47.212;7.542;2022-12-29T05:46:59;2.33;;;1.50;;
4754;SDS011;2391;47.212;7.542;2022-12-29T05:49:25;5.10;;;2.03;;
4754;SDS011;2391;47.212;7.542;2022-12-29T05:51:51;1.80;;;1.70;;
4754;SDS011;2391;47.212;7.542;2022-12-29T05:54:17;2.10;;;1.90;;
4754;SDS011;2391;47.212;7.542;2022-12-29T05:56:43;1.93;;;1.73;;
4754;SDS011;2391;47.212;7.542;2022-12-29T05:59:08;3.10;;;1.97;;
4754;SDS011;2391;47.212;7.542;2022-12-29T06:01:34;1.43;;;1.33;;
4754;SDS011;2391;47.212;7.542;2022-12-29T06:04:00;3.03;;;2.00;;
4754;SDS011;2391;47.212;7.542;2022-12-29T06:06:26;1.80;;;1.70;;
4754;SDS011;2391;47.212;7.542;2022-12-29T06:08:52;2.93;;;1.70;;
4754;SDS011;2391;47.212;7.542;2022-12-29T06:11:18;1.77;;;1.67;;
4754;SDS011;2391;47.212;7.542;2022-12-29T06:13:44;4.43;;;1.93;;
4754;SDS011;2391;47.212;7.542;2022-12-29T06:16:10;4.60;;;1.40;;
4754;SDS011;2391;47.212;7.542;2022-12-29T06:18:35;1.80;;;1.70;;
4754;SDS011;2391;47.212;7.542;2022-12-29T06:21:02;1.70;;;1.60;;
4754;SDS011;2391;47.212;7.542;2022-12-29T06:23:29;3.33;;;1.83;;
4754;SDS011;2391;47.212;7.542;2022-12-29T06:25:55;3.60;;;1.53;;
4754;SDS011;2391;47.212;7.542;2022-12-29T06:28:22;3.10;;;2.00;;
4754;SDS011;2391;47.212;7.542;2022-12-29T06:30:49;1.77;;;1.37;;
4754;SDS011;2391;47.212;7.542;2022-12-29T06:33:15;1.70;;;1.60;;
4754;SDS011;2391;47.212;7.542;2022-12-29T06:35:41;2.50;;;1.60;;
4754;SDS011;2391;47.212;7.542;2022-12-29T06:38:08;1.80;;;1.70;;
4754;SDS011;2391;47.212;7.542;2022-12-29T06:40:34;3.00;;;1.60;;
4754;SDS011;2391;47.212;7.542;2022-12-29T06:43:00;2.40;;;1.60;;
4754;SDS011;2391;47.212;7.542;2022-12-29T06:45:27;1.93;;;1.50;;
4754;SDS011;2391;47.212;7.542;2022-12-29T06:47:53;1.53;;;1.13;;
4754;SDS011;2391;47.212;7.542;2022-12-29T06:50:19;3.20;;;1.80;;
4754;SDS011;2391;47.212;7.542;2022-12-29T06:52:45;1.97;;;1.77;;
4754;SDS011;2391;47.212;7.542;2022-12-29T06:55:11;1.93;;;1.30;;
4754;SDS011;2391;47.212;7.542;2022-12-29T06:57:37;1.83;;;1.73;;
4754;SDS011;2391;47.212;7.542;2022-12-29T07:00:03;1.57;;;1.47;;
4754;SDS011;2391;47.212;7.542;2022-12-29T07:02:30;1.97;;;1.67;;
4754;SDS011;2391;47.212;7.542;2022-12-29T07:04:56;2.00;;;1.80;;
4754;SDS011;2391;47.212;7.542;2022-12-29T07:07:22;1.73;;;1.63;;
4754;SDS011;2391;47.212;7.542;2022-12-29T07:09:48;2.07;;;1.73;;
4754;SDS011;2391;47.212;7.542;2022-12-29T07:12:14;3.50;;;1.80;;
4754;SDS011;2391;47.212;7.542;2022-12-29T07:14:40;1.83;;;1.70;;
4754;SDS011;2391;47.212;7.542;2022-12-29T07:17:06;2.33;;;1.50;;
4754;SDS011;2391;47.212;7.542;2022-12-29T07:19:32;1.60;;;1.50;;
4754;SDS011;2391;47.212;7.542;2022-12-29T07:21:59;3.97;;;1.67;;
4754;SDS011;2391;47.212;7.542;2022-12-29T07:24:25;4.60;;;1.80;;
4754;SDS011;2391;47.212;7.542;2022-12-29T07:26:51;1.50;;;1.40;;
4754;SDS011;2391;47.212;7.542;2022-12-29T07:29:18;2.20;;;2.03;;
4754;SDS011;2391;47.212;7.542;2022-12-29T07:31:44;1.77;;;1.63;;
4754;SDS011;2391;47.212;7.542;2022-12-29T07:34:10;3.83;;;2.67;;
4754;SDS011;2391;47.212;7.542;2022-12-29T07:36:36;2.60;;;1.87;;
4754;SDS011;2391;47.212;7.542;2022-12-29T07:39:03;1.90;;;1.80;;
4754;SDS011;2391;47.212;7.542;2022-12-29T07:41:29;2.70;;;1.60;;
4754;SDS011;2391;47.212;7.542;2022-12-29T07:43:55;2.50;;;1.77;;
4754;SDS011;2391;47.212;7.542;2022-12-29T07:46:21;2.50;;;1.80;;
4754;SDS011;2391;47.212;7.542;2022-12-29T07:48:47;4.50;;;1.50;;
4754;SDS011;2391;47.212;7.542;2022-12-29T07:51:13;1.93;;;1.83;;
4754;SDS011;2391;47.212;7.542;2022-12-29T07:53:39;1.60;;;1.40;;
4754;SDS011;2391;47.212;7.542;2022-12-29T07:56:05;1.83;;;1.50;;
4754;SDS011;2391;47.212;7.542;2022-12-29T07:58:31;2.30;;;1.60;;
4754;SDS011;2391;47.212;7.542;2022-12-29T08:00:57;3.37;;;1.70;;
4754;SDS011;2391;47.212;7.542;2022-12-29T08:03:23;1.50;;;1.40;;
4754;SDS011;2391;47.212;7.542;2022-12-29T08:05:51;1.77;;;1.67;;
4754;SDS011;2391;47.212;7.542;2022-12-29T08:08:17;6.70;;;1.60;;
4754;SDS011;2391;47.212;7.542;2022-12-29T08:10:43;2.93;;;1.47;;
4754;SDS011;2391;47.212;7.542;2022-12-29T08:13:09;4.83;;;1.93;;
4754;SDS011;2391;47.212;7.542;2022-12-29T08:15:37;1.80;;;1.70;;
4754;SDS011;2391;47.212;7.542;2022-12-29T08:18:03;1.60;;;1.50;;
4754;SDS011;2391;47.212;7.542;2022-12-29T08:20:29;1.50;;;1.40;;
4754;SDS011;2391;47.212;7.542;2022-12-29T08:22:56;1.60;;;1.50;;
4754;SDS011;2391;47.212;7.542;2022-12-29T08:25:22;1.60;;;1.50;;
4754;SDS011;2391;47.212;7.542;2022-12-29T08:27:48;1.70;;;1.57;;
4754;SDS011;2391;47.212;7.542;2022-12-29T08:30:14;1.57;;;1.47;;
4754;SDS011;2391;47.212;7.542;2022-12-29T08:32:40;4.00;;;1.87;;
4754;SDS011;2391;47.212;7.542;2022-12-29T08:35:06;2.57;;;2.03;;
4754;SDS011;2391;47.212;7.542;2022-12-29T08:37:33;4.00;;;1.50;;
4754;SDS011;2391;47.212;7.542;2022-12-29T08:39:59;1.83;;;1.50;;
4754;SDS011;2391;47.212;7.542;2022-12-29T08:42:27;2.80;;;1.60;;
4754;SDS011;2391;47.212;7.542;2022-12-29T08:44:55;2.13;;;1.40;;
4754;SDS011;2391;47.212;7.542;2022-12-29T08:47:21;2.80;;;1.30;;
4754;SDS011;2391;47.212;7.542;2022-12-29T08:49:47;3.63;;;1.40;;
4754;SDS011;2391;47.212;7.542;2022-12-29T08:52:13;1.57;;;1.20;;
4754;SDS011;2391;47.212;7.542;2022-12-29T08:54:39;1.40;;;1.30;;
4754;SDS011;2391;47.212;7.542;2022-12-29T08:57:05;2.60;;;1.50;;
4754;SDS011;2391;47.212;7.542;2022-12-29T08:59:31;7.00;;;1.63;;
4754;SDS011;2391;47.212;7.542;2022-12-29T09:01:57;3.47;;;1.73;;
4754;SDS011;2391;47.212;7.542;2022-12-29T09:04:23;2.17;;;1.20;;
4754;SDS011;2391;47.212;7.542;2022-12-29T09:06:49;1.30;;;1.20;;
4754;SDS011;2391;47.212;7.542;2022-12-29T09:09:15;2.97;;;1.50;;
4754;SDS011;2391;47.212;7.542;2022-12-29T09:11:42;2.20;;;1.20;;
4754;SDS011;2391;47.212;7.542;2022-12-29T09:14:08;2.47;;;1.60;;
4754;SDS011;2391;47.212;7.542;2022-12-29T09:16:34;2.40;;;1.20;;
4754;SDS011;2391;47.212;7.542;2022-12-29T09:19:02;1.90;;;1.10;;
4754;SDS011;2391;47.212;7.542;2022-12-29T09:21:28;5.90;;;1.50;;
4754;SDS011;2391;47.212;7.542;2022-12-29T09:23:54;1.20;;;1.10;;
4754;SDS011;2391;47.212;7.542;2022-12-29T09:26:20;1.60;;;1.30;;
4754;SDS011;2391;47.212;7.542;2022-12-29T09:28:46;2.60;;;1.33;;
4754;SDS011;2391;47.212;7.542;2022-12-29T09:31:13;3.43;;;1.77;;
4754;SDS011;2391;47.212;7.542;2022-12-29T09:33:39;2.20;;;1.20;;
4754;SDS011;2391;47.212;7.542;2022-12-29T09:36:05;3.73;;;1.40;;
4754;SDS011;2391;47.212;7.542;2022-12-29T09:38:31;1.67;;;1.37;;
4754;SDS011;2391;47.212;7.542;2022-12-29T09:41:11;7.17;;;1.53;;
4754;SDS011;2391;47.212;7.542;2022-12-29T09:46:29;3.87;;;1.80;;
4754;SDS011;2391;47.212;7.542;2022-12-29T09:49:04;1.77;;;1.20;;
4754;SDS011;2391;47.212;7.542;2022-12-29T09:51:29;2.70;;;1.67;;
4754;SDS011;2391;47.212;7.542;2022-12-29T09:54:09;2.17;;;1.27;;
4754;SDS011;2391;47.212;7.542;2022-12-29T09:56:30;1.33;;;1.23;;
4754;SDS011;2391;47.212;7.542;2022-12-29T09:59:10;3.20;;;1.60;;
4754;SDS011;2391;47.212;7.542;2022-12-29T10:04:14;3.50;;;1.30;;
4754;SDS011;2391;47.212;7.542;2022-12-29T10:11:55;2.53;;;1.03;;
4754;SDS011;2391;47.212;7.542;2022-12-29T10:17:40;2.43;;;1.40;;
4754;SDS011;2391;47.212;7.542;2022-12-29T10:25:38;1.67;;;1.10;;
4754;SDS011;2391;47.212;7.542;2022-12-29T10:28:13;1.80;;;1.10;;
4754;SDS011;2391;47.212;7.542;2022-12-29T10:30:46;1.43;;;1.10;;
4754;SDS011;2391;47.212;7.542;2022-12-29T10:33:21;2.37;;;1.20;;
4754;SDS011;2391;47.212;7.542;2022-12-29T10:35:51;4.57;;;1.20;;
4754;SDS011;2391;47.212;7.542;2022-12-29T10:43:40;1.83;;;1.20;;
4754;SDS011;2391;47.212;7.542;2022-12-29T10:46:08;2.03;;;1.20;;
4754;SDS011;2391;47.212;7.542;2022-12-29T10:48:39;2.70;;;1.03;;
4754;SDS011;2391;47.212;7.542;2022-12-29T10:51:05;1.67;;;1.20;;
4754;SDS011;2391;47.212;7.542;2022-12-29T10:53:46;1.10;;;1.10;;
4754;SDS011;2391;47.212;7.542;2022-12-29T10:56:27;5.70;;;1.00;;
4754;SDS011;2391;47.212;7.542;2022-12-29T10:58:54;0.90;;;0.90;;
4754;SDS011;2391;47.212;7.542;2022-12-29T11:01:24;1.30;;;1.20;;
4754;SDS011;2391;47.212;7.542;2022-12-29T11:06:48;2.17;;;1.03;;
4754;SDS011;2391;47.212;7.542;2022-12-29T11:09:24;2.77;;;1.10;;
4754;SDS011;2391;47.212;7.542;2022-12-29T11:11:48;3.80;;;1.10;;
4754;SDS011;2391;47.212;7.542;2022-12-29T11:14:18;1.17;;;1.10;;
4754;SDS011;2391;47.212;7.542;2022-12-29T11:17:02;3.27;;;1.03;;
4754;SDS011;2391;47.212;7.542;2022-12-29T11:19:31;3.10;;;0.90;;
4754;SDS011;2391;47.212;7.542;2022-12-29T11:22:40;1.30;;;0.83;;
4754;SDS011;2391;47.212;7.542;2022-12-29T11:24:49;2.23;;;0.83;;
4754;SDS011;2391;47.212;7.542;2022-12-29T11:27:21;0.80;;;0.80;;
4754;SDS011;2391;47.212;7.542;2022-12-29T11:29:48;3.40;;;1.00;;
4754;SDS011;2391;47.212;7.542;2022-12-29T11:32:19;0.90;;;0.90;;
4754;SDS011;2391;47.212;7.542;2022-12-29T11:34:47;2.67;;;1.10;;
4754;SDS011;2391;47.212;7.542;2022-12-29T11:39:49;1.67;;;1.00;;
4754;SDS011;2391;47.212;7.542;2022-12-29T11:42:35;1.43;;;0.90;;
4754;SDS011;2391;47.212;7.542;2022-12-29T11:45:04;1.27;;;0.97;;
4754;SDS011;2391;47.212;7.542;2022-12-29T11:47:45;5.20;;;1.20;;
4754;SDS011;2391;47.212;7.542;2022-12-29T11:50:19;1.80;;;0.83;;
4754;SDS011;2391;47.212;7.542;2022-12-29T11:52:44;3.03;;;1.10;;
4754;SDS011;2391;47.212;7.542;2022-12-29T11:55:18;1.07;;;0.97;;
4754;SDS011;2391;47.212;7.542;2022-12-29T11:57:47;1.10;;;0.83;;
4754;SDS011;2391;47.212;7.542;2022-12-29T12:00:16;4.53;;;1.10;;
4754;SDS011;2391;47.212;7.542;2022-12-29T12:02:48;1.80;;;0.73;;
4754;SDS011;2391;47.212;7.542;2022-12-29T12:05:47;1.60;;;1.07;;
4754;SDS011;2391;47.212;7.542;2022-12-29T12:08:00;2.73;;;0.80;;
4754;SDS011;2391;47.212;7.542;2022-12-29T12:10:31;3.50;;;0.87;;
4754;SDS011;2391;47.212;7.542;2022-12-29T12:13:23;3.93;;;1.00;;
4754;SDS011;2391;47.212;7.542;2022-12-29T12:21:20;6.10;;;1.17;;
4754;SDS011;2391;47.212;7.542;2022-12-29T12:29:28;1.37;;;0.90;;
4754;SDS011;2391;47.212;7.542;2022-12-29T12:32:02;1.03;;;1.03;;
4754;SDS011;2391;47.212;7.542;2022-12-29T12:34:37;1.90;;;1.00;;
4754;SDS011;2391;47.212;7.542;2022-12-29T12:50:46;1.40;;;0.83;;
4754;SDS011;2391;47.212;7.542;2022-12-29T13:01:24;3.60;;;1.07;;
4754;SDS011;2391;47.212;7.542;2022-12-29T13:06:50;1.30;;;0.70;;
4754;SDS011;2391;47.212;7.542;2022-12-29T13:12:22;1.00;;;0.73;;
4754;SDS011;2391;47.212;7.542;2022-12-29T13:17:43;1.50;;;1.07;;
4754;SDS011;2391;47.212;7.542;2022-12-29T13:22:42;2.67;;;0.77;;
4754;SDS011;2391;47.212;7.542;2022-12-29T13:25:15;2.10;;;0.80;;
4754;SDS011;2391;47.212;7.542;2022-12-29T13:27:50;2.30;;;0.90;;
4754;SDS011;2391;47.212;7.542;2022-12-29T13:30:21;2.93;;;0.70;;
4754;SDS011;2391;47.212;7.542;2022-12-29T13:41:16;0.83;;;0.83;;
4754;SDS011;2391;47.212;7.542;2022-12-29T13:43:40;1.60;;;0.87;;
4754;SDS011;2391;47.212;7.542;2022-12-29T13:46:20;2.70;;;0.87;;
4754;SDS011;2391;47.212;7.542;2022-12-29T13:48:55;3.67;;;0.87;;
4754;SDS011;2391;47.212;7.542;2022-12-29T13:51:26;1.10;;;1.00;;
4754;SDS011;2391;47.212;7.542;2022-12-29T14:01:57;1.80;;;0.80;;
4754;SDS011;2391;47.212;7.542;2022-12-29T14:04:28;6.80;;;1.03;;
4754;SDS011;2391;47.212;7.542;2022-12-29T14:07:03;0.70;;;0.70;;
4754;SDS011;2391;47.212;7.542;2022-12-29T14:12:26;1.50;;;0.77;;
4754;SDS011;2391;47.212;7.542;2022-12-29T14:14:47;2.97;;;0.80;;
4754;SDS011;2391;47.212;7.542;2022-12-29T14:17:16;3.27;;;0.80;;
4754;SDS011;2391;47.212;7.542;2022-12-29T14:19:44;0.87;;;0.87;;
4754;SDS011;2391;47.212;7.542;2022-12-29T14:22:15;2.60;;;0.93;;
4754;SDS011;2391;47.212;7.542;2022-12-29T14:24:44;1.20;;;0.90;;
4754;SDS011;2391;47.212;7.542;2022-12-29T14:34:55;1.33;;;1.07;;
4754;SDS011;2391;47.212;7.542;2022-12-29T14:42:43;5.70;;;0.97;;
4754;SDS011;2391;47.212;7.542;2022-12-29T14:47:46;4.70;;;0.90;;
4754;SDS011;2391;47.212;7.542;2022-12-29T14:50:14;1.77;;;1.10;;
4754;SDS011;2391;47.212;7.542;2022-12-29T14:52:59;1.13;;;0.80;;
4754;SDS011;2391;47.212;7.542;2022-12-29T14:58:22;1.77;;;1.10;;
4754;SDS011;2391;47.212;7.542;2022-12-29T15:01:17;0.90;;;0.90;;
4754;SDS011;2391;47.212;7.542;2022-12-29T15:03:47;1.90;;;1.10;;
4754;SDS011;2391;47.212;7.542;2022-12-29T15:06:11;1.00;;;0.83;;
4754;SDS011;2391;47.212;7.542;2022-12-29T15:08:55;1.50;;;1.20;;
4754;SDS011;2391;47.212;7.542;2022-12-29T15:16:55;1.53;;;0.90;;
4754;SDS011;2391;47.212;7.542;2022-12-29T15:19:22;3.60;;;0.90;;
4754;SDS011;2391;47.212;7.542;2022-12-29T15:21:48;0.87;;;0.87;;
4754;SDS011;2391;47.212;7.542;2022-12-29T15:24:15;2.13;;;1.10;;
4754;SDS011;2391;47.212;7.542;2022-12-29T15:26:46;1.00;;;0.90;;
4754;SDS011;2391;47.212;7.542;2022-12-29T15:32:00;0.90;;;0.90;;
4754;SDS011;2391;47.212;7.542;2022-12-29T15:34:30;1.37;;;1.30;;
4754;SDS011;2391;47.212;7.542;2022-12-29T15:36:56;4.10;;;0.90;;
4754;SDS011;2391;47.212;7.542;2022-12-29T15:39:29;1.10;;;1.00;;
4754;SDS011;2391;47.212;7.542;2022-12-29T15:44:39;1.43;;;0.90;;
4754;SDS011;2391;47.212;7.542;2022-12-29T15:47:25;1.10;;;1.00;;
4754;SDS011;2391;47.212;7.542;2022-12-29T15:49:57;1.97;;;1.10;;
4754;SDS011;2391;47.212;7.542;2022-12-29T15:52:23;1.43;;;0.90;;
4754;SDS011;2391;47.212;7.542;2022-12-29T15:54:51;1.30;;;0.80;;
4754;SDS011;2391;47.212;7.542;2022-12-29T15:57:23;5.67;;;1.27;;
4754;SDS011;2391;47.212;7.542;2022-12-29T15:59:51;1.00;;;0.90;;
4754;SDS011;2391;47.212;7.542;2022-12-29T16:02:19;1.30;;;1.20;;
4754;SDS011;2391;47.212;7.542;2022-12-29T16:04:49;1.13;;;1.07;;
4754;SDS011;2391;47.212;7.542;2022-12-29T16:07:29;3.00;;;1.10;;
4754;SDS011;2391;47.212;7.542;2022-12-29T16:09:58;1.30;;;1.20;;
4754;SDS011;2391;47.212;7.542;2022-12-29T16:12:28;1.43;;;1.30;;
4754;SDS011;2391;47.212;7.542;2022-12-29T16:15:01;1.23;;;1.13;;
4754;SDS011;2391;47.212;7.542;2022-12-29T16:17:34;5.90;;;1.30;;
4754;SDS011;2391;47.212;7.542;2022-12-29T16:20:04;1.97;;;1.00;;
4754;SDS011;2391;47.212;7.542;2022-12-29T16:22:45;1.97;;;1.50;;
4754;SDS011;2391;47.212;7.542;2022-12-29T16:25:33;2.23;;;1.30;;
4754;SDS011;2391;47.212;7.542;2022-12-29T16:28:02;3.60;;;1.30;;
4754;SDS011;2391;47.212;7.542;2022-12-29T16:30:32;1.10;;;1.10;;
4754;SDS011;2391;47.212;7.542;2022-12-29T16:33:04;2.03;;;1.20;;
4754;SDS011;2391;47.212;7.542;2022-12-29T16:35:49;1.20;;;1.10;;
4754;SDS011;2391;47.212;7.542;2022-12-29T16:40:50;5.53;;;2.70;;
4754;SDS011;2391;47.212;7.542;2022-12-29T16:43:25;3.33;;;1.97;;
4754;SDS011;2391;47.212;7.542;2022-12-29T16:51:12;1.30;;;1.20;;
4754;SDS011;2391;47.212;7.542;2022-12-29T16:53:35;2.30;;;1.83;;
4754;SDS011;2391;47.212;7.542;2022-12-29T16:56:13;2.87;;;1.37;;
4754;SDS011;2391;47.212;7.542;2022-12-29T16:58:36;1.60;;;1.50;;
4754;SDS011;2391;47.212;7.542;2022-12-29T17:01:04;2.20;;;1.60;;
4754;SDS011;2391;47.212;7.542;2022-12-29T17:03:38;2.10;;;1.40;;
4754;SDS011;2391;47.212;7.542;2022-12-29T17:06:08;3.40;;;1.70;;
4754;SDS011;2391;47.212;7.542;2022-12-29T17:08:39;1.83;;;1.50;;
4754;SDS011;2391;47.212;7.542;2022-12-29T17:11:08;3.13;;;1.23;;
4754;SDS011;2391;47.212;7.542;2022-12-29T17:14:25;3.07;;;1.60;;
4754;SDS011;2391;47.212;7.542;2022-12-29T17:16:48;2.23;;;2.03;;
4754;SDS011;2391;47.212;7.542;2022-12-29T17:19:19;2.03;;;1.67;;
4754;SDS011;2391;47.212;7.542;2022-12-29T17:21:43;4.70;;;1.83;;
4754;SDS011;2391;47.212;7.542;2022-12-29T17:24:18;2.53;;;1.60;;
4754;SDS011;2391;47.212;7.542;2022-12-29T17:26:44;3.07;;;2.17;;
4754;SDS011;2391;47.212;7.542;2022-12-29T17:29:21;2.63;;;1.50;;
4754;SDS011;2391;47.212;7.542;2022-12-29T17:31:55;1.93;;;1.83;;
4754;SDS011;2391;47.212;7.542;2022-12-29T17:34:22;4.30;;;1.50;;
4754;SDS011;2391;47.212;7.542;2022-12-29T17:36:48;3.13;;;2.93;;
4754;SDS011;2391;47.212;7.542;2022-12-29T17:39:14;3.63;;;2.17;;
4754;SDS011;2391;47.212;7.542;2022-12-29T17:41:40;2.20;;;2.00;;
4754;SDS011;2391;47.212;7.542;2022-12-29T17:44:08;2.47;;;1.93;;
4754;SDS011;2391;47.212;7.542;2022-12-29T17:46:36;2.00;;;1.80;;
4754;SDS011;2391;47.212;7.542;2022-12-29T17:49:04;2.60;;;2.40;;
4754;SDS011;2391;47.212;7.542;2022-12-29T17:51:32;5.20;;;1.80;;
4754;SDS011;2391;47.212;7.542;2022-12-29T17:53:57;2.30;;;2.00;;
4754;SDS011;2391;47.212;7.542;2022-12-29T17:56:23;2.30;;;1.73;;
4754;SDS011;2391;47.212;7.542;2022-12-29T17:58:50;2.60;;;1.97;;
4754;SDS011;2391;47.212;7.542;2022-12-29T18:01:16;1.90;;;1.80;;
4754;SDS011;2391;47.212;7.542;2022-12-29T18:03:45;2.57;;;1.97;;
4754;SDS011;2391;47.212;7.542;2022-12-29T18:06:11;2.70;;;2.20;;
4754;SDS011;2391;47.212;7.542;2022-12-29T18:08:38;2.83;;;2.43;;
4754;SDS011;2391;47.212;7.542;2022-12-29T18:11:12;2.47;;;2.37;;
4754;SDS011;2391;47.212;7.542;2022-12-29T18:13:47;3.00;;;2.40;;
4754;SDS011;2391;47.212;7.542;2022-12-29T18:16:13;2.53;;;2.33;;
4754;SDS011;2391;47.212;7.542;2022-12-29T18:18:39;4.03;;;3.03;;
4754;SDS011;2391;47.212;7.542;2022-12-29T18:21:05;2.10;;;2.00;;